COOK1: Arkansas River Nr Coolidge, KS

                                SHEF ID:       COOK1     ARKANSAS R NR COOLIDGE, KS
STATION TYPE:
Regulating: Stage = 8.00, Flow = 2041

PRECIP STAGE STAGE(2) RIV-FLOW WTR-TEMP CONDUCT BAT-LOAD
in ft ft cfs F umho/cm volt
Ccp-Rev Ccp-Rev Ccp-Rev Ccp-Rev Ccp-Rev Ccp-Rev Ccp-Rev
(America/Chicago)
05/05 00:00 0.00 1.87 ---- 20 60.96 7135 12.54
05/05 01:00 0.00 1.87 ---- 20 58.80 7153 12.50
05/05 02:00 0.00 1.87 ---- 20 57.31 7144 12.46
05/05 03:00 0.00 1.87 ---- 20 55.72 7139 12.43
05/05 04:00 0.00 1.86 ---- 19 54.88 7128 12.40
05/05 05:00 0.00 1.86 ---- 19 54.19 7128 12.36
05/05 06:00 0.00 1.86 ---- 19 53.28 7137 12.34
05/05 07:00 0.00 1.86 ---- 19 52.83 7150 12.31
05/05 08:00 0.00 1.86 ---- 19 52.68 7166 12.30
05/05 09:00 0.00 1.86 ---- 19 52.70 7177 12.48
05/05 10:00 0.00 1.86 ---- 19 52.57 7182 12.79
05/05 11:00 0.00 1.86 ---- 19 52.88 7186 13.00
05/05 12:00 0.00 1.86 ---- 19 53.85 7182 13.21
05/05 13:00 0.00 1.86 ---- 19 55.09 7175 13.26
05/05 14:00 0.00 1.86 ---- 19 54.63 7164 13.19
05/05 15:00 0.00 1.87 ---- 20 54.48 7141 13.33
05/05 16:00 0.00 1.88 ---- 20 53.91 7119 13.29
05/05 17:00 0.00 1.89 ---- 21 53.53 7099 13.53
05/05 18:00 0.00 1.89 ---- 21 53.69 7092 13.59
05/05 19:00 0.00 1.91 ---- 22 53.19 7101 13.65
05/05 20:00 0.00 1.91 ---- 22 52.43 7076 13.35
05/05 21:00 0.00 1.91 ---- 22 51.49 7016 12.63
05/05 22:00 0.00 1.91 ---- 22 50.88 6970 12.46
05/05 23:00 0.00 1.91 ---- 22 50.14 6899 12.45
Data processed at Wed 06May2026 04:30 GMT

NOTICE: If you are parsing this page

Please convert to using our Data API. Starting early 2026 we will be migrating to: https://water.usace.army.mil with modern pages rendered in JavaScript. When this migration completes you will no longer be able to scrape this page! CWMSDataAPI (CDA)

Timeseries IDs (TSIDs)

TSIDs used from left to right in the data table
COOL.Precip-Inc.Total.1Hour.1Hour.Ccp-Rev
COOL.Stage.Inst.1Hour.0.Ccp-Rev
COOL.Stage-Alt.Inst.1Hour.0.Ccp-Rev
COOL.Flow.Inst.1Hour.0.Ccp-Rev
COOL.Temp-Water.Inst.1Hour.0.Ccp-Rev
COOL.Cond.Inst.1Hour.0.Ccp-Rev
COOL.Volt-Battery Load.Inst.1Hour.0.Ccp-Rev

                            

All information presented herein is the property of the government of the United States of America and may be revised or deleted at any time without prior notice. Dissemination of this information without the expressed written consent of the Public Affairs Office, Tulsa District U.S. Army Corps of Engineers is strictly prohibited. These data are gathered electronically and, as presented, have NOT undergone any form of quality control. These data are NOT guaranteed to be valid or correct.